createdAt,value
2023-02-10T00:02:05.986Z,114.68
2023-02-10T00:08:09.384Z,131.40
2023-02-10T00:14:13.221Z,91.13
2023-02-10T00:20:19.240Z,89.53
2023-02-10T00:26:22.793Z,91.85
2023-02-10T00:32:26.169Z,68.60
2023-02-10T00:38:31.125Z,109.38
2023-02-10T00:44:34.489Z,92.10
2023-02-10T00:50:37.882Z,74.82
2023-02-10T00:56:42.961Z,88.38
2023-02-10T01:02:46.668Z,97.65
2023-02-10T01:08:50.098Z,113.70
2023-02-10T01:14:55.015Z,96.43
2023-02-10T01:20:58.387Z,127.43
2023-02-10T01:27:01.927Z,88.30
2023-02-10T01:33:06.996Z,104.72
2023-02-10T01:39:10.377Z,96.60
2023-02-10T01:45:15.612Z,101.32
2023-02-10T01:51:21.970Z,94.30
2023-02-10T01:57:25.698Z,78.28
2023-02-10T02:03:29.158Z,62.33
2023-02-10T02:09:33.888Z,76.95
2023-02-10T02:15:39.121Z,72.60
2023-02-10T02:21:59.918Z,90.30
2023-02-10T02:28:20.590Z,108.80
2023-02-10T02:34:28.755Z,95.30
2023-02-10T02:40:32.377Z,94.05
2023-02-10T02:46:42.677Z,84.22
2023-02-10T02:52:51.437Z,84.53
2023-02-10T02:58:57.453Z,54.15
2023-02-10T03:05:01.198Z,75.72
2023-02-10T03:11:06.147Z,72.05
2023-02-10T03:17:09.546Z,63.08
2023-02-10T03:23:13.157Z,96.53
2023-02-10T03:29:18.522Z,101.80
2023-02-10T03:35:21.951Z,80.63
2023-02-10T03:41:25.506Z,69.25
2023-02-10T03:47:30.552Z,101.65
2023-02-10T03:53:34.250Z,68.43
2023-02-10T03:59:37.755Z,60.63
2023-02-10T04:05:42.554Z,55.90
2023-02-10T04:11:45.939Z,60.50
2023-02-10T04:17:49.462Z,55.25
2023-02-10T04:23:54.601Z,57.47
2023-02-10T04:29:58.218Z,54.42
2023-02-10T04:36:03.788Z,68.97
2023-02-10T04:42:08.678Z,77.60
2023-02-10T04:48:12.143Z,82.75
2023-02-10T04:54:15.524Z,76.60
2023-02-10T05:00:20.984Z,69.90
2023-02-10T05:06:24.369Z,53.83
2023-02-10T05:12:27.954Z,43.35
2023-02-10T05:18:32.834Z,42.72
2023-02-10T05:24:36.288Z,67.63
2023-02-10T05:30:39.641Z,75.05
2023-02-10T05:36:45.197Z,50.53
2023-02-10T05:42:48.875Z,67.78
2023-02-10T05:48:52.296Z,79.93
2023-02-10T05:54:57.020Z,80.05
2023-02-10T06:01:00.402Z,81.38
2023-02-10T06:07:03.825Z,131.23
2023-02-10T06:13:08.573Z,103.70
2023-02-10T06:19:12.015Z,76.43
2023-02-10T06:25:15.723Z,70.60
2023-02-10T06:31:20.793Z,75.78
2023-02-10T06:37:24.630Z,63.25
2023-02-10T06:43:28.070Z,63.00
2023-02-10T06:49:32.847Z,63.92
2023-02-10T06:55:36.727Z,53.25
2023-02-10T07:01:40.404Z,46.25
2023-02-10T07:07:45.173Z,42.05
2023-02-10T07:13:49.144Z,49.90
2023-02-10T07:19:52.527Z,42.60
2023-02-10T07:25:57.304Z,42.88
2023-02-10T07:32:00.817Z,59.40
2023-02-10T07:38:04.526Z,70.32
2023-02-10T07:44:09.360Z,68.72
2023-02-10T07:50:12.784Z,75.53
2023-02-10T07:56:16.168Z,106.90
2023-02-10T08:02:21.125Z,88.82
2023-02-10T08:08:24.637Z,93.53
2023-02-10T08:14:28.115Z,85.30
2023-02-10T08:20:33.006Z,89.03
2023-02-10T08:26:36.395Z,96.28
2023-02-10T08:32:39.846Z,83.63
2023-02-10T08:38:44.751Z,77.18
2023-02-10T08:44:48.180Z,80.35
2023-02-10T08:50:51.612Z,55.58
2023-02-10T08:56:57.358Z,71.70
2023-02-10T09:03:00.958Z,56.28
2023-02-10T09:09:04.387Z,51.78
2023-02-10T09:15:10.242Z,43.55
2023-02-10T09:21:13.992Z,74.88
2023-02-10T09:27:18.109Z,56.58
2023-02-10T09:33:23.028Z,54.58
2023-02-10T09:39:26.684Z,50.00
2023-02-10T09:45:35.580Z,55.78
2023-02-10T09:51:46.188Z,46.00
2023-02-10T09:57:52.503Z,43.95
2023-02-10T10:03:58.829Z,45.10
2023-02-10T10:10:05.175Z,38.80
2023-02-10T10:16:16.818Z,37.13
2023-02-10T10:22:28.035Z,40.92
2023-02-10T10:28:50.679Z,41.67
2023-02-10T10:34:55.069Z,38.00
2023-02-10T10:41:01.431Z,47.47
2023-02-10T10:47:09.649Z,52.40
2023-02-10T10:53:16.469Z,64.35
2023-02-10T10:59:22.827Z,71.03
2023-02-10T11:05:30.574Z,69.38
2023-02-10T11:11:38.319Z,65.13
2023-02-10T11:17:42.581Z,66.05
2023-02-10T11:23:51.258Z,74.25
2023-02-10T11:29:55.540Z,61.30
2023-02-10T11:36:02.173Z,73.22
2023-02-10T11:42:11.912Z,70.38
2023-02-10T11:48:17.017Z,61.85
2023-02-10T11:54:20.527Z,67.43
2023-02-10T12:00:28.562Z,53.30
2023-02-10T12:06:37.355Z,44.85
2023-02-10T12:12:45.480Z,43.10
2023-02-10T12:19:15.040Z,41.38
2023-02-10T12:25:22.803Z,39.42
2023-02-10T12:31:31.272Z,46.30
2023-02-10T12:37:52.273Z,46.05
2023-02-10T12:44:03.545Z,49.22
2023-02-10T12:50:34.017Z,48.08
2023-02-10T12:56:40.575Z,47.83
2023-02-10T13:02:47.733Z,37.65
2023-02-10T13:08:52.636Z,30.77
2023-02-10T13:15:00.491Z,35.38
2023-02-10T13:21:07.448Z,31.52
2023-02-10T13:27:20.540Z,32.28
2023-02-10T13:33:28.155Z,29.05
2023-02-10T13:39:33.588Z,31.98
2023-02-10T13:45:40.180Z,32.42
2023-02-10T13:51:43.615Z,37.40
2023-02-10T13:57:56.152Z,31.50
2023-02-10T14:03:59.604Z,32.22
2023-02-10T14:10:03.940Z,29.08
2023-02-10T14:16:09.892Z,24.50
2023-02-10T14:22:23.836Z,24.73
2023-02-10T14:28:29.729Z,25.92
2023-02-10T14:34:35.268Z,26.13
2023-02-10T14:40:39.870Z,29.77
2023-02-10T14:46:43.403Z,26.75
2023-02-10T14:52:52.591Z,25.63
2023-02-10T14:58:56.608Z,27.40
2023-02-10T15:05:02.652Z,25.38
2023-02-10T15:11:09.254Z,21.92
2023-02-10T15:17:16.283Z,19.23
2023-02-10T15:23:30.942Z,16.27
2023-02-10T15:29:39.578Z,21.42
2023-02-10T15:35:57.303Z,20.15
2023-02-10T15:42:03.515Z,17.25
2023-02-10T15:48:09.433Z,19.83
2023-02-10T15:54:15.189Z,15.52
2023-02-10T16:00:20.784Z,14.15
2023-02-10T16:06:25.751Z,13.32
2023-02-10T16:12:29.171Z,13.05
2023-02-10T16:18:32.990Z,10.52
2023-02-10T16:24:38.369Z,10.38
2023-02-10T16:30:41.879Z,9.18
2023-02-10T16:36:45.782Z,10.20
2023-02-10T16:42:50.623Z,9.07
2023-02-10T16:48:54.045Z,8.88
2023-02-10T16:54:57.462Z,10.13
2023-02-10T17:01:02.762Z,18.75
2023-02-10T17:07:06.326Z,16.40
2023-02-10T17:13:09.838Z,9.20
2023-02-10T17:19:15.679Z,6.75
2023-02-10T17:25:19.145Z,7.50
2023-02-10T17:31:23.619Z,7.80
2023-02-10T17:37:29.765Z,6.95
2023-02-10T17:43:33.324Z,9.85
2023-02-10T17:49:36.830Z,9.18
2023-02-10T17:55:43.751Z,6.78
2023-02-10T18:01:47.591Z,6.07
2023-02-10T18:07:51.118Z,5.85
2023-02-10T18:13:56.098Z,6.80
2023-02-10T18:19:59.575Z,9.13
2023-02-10T18:26:03.272Z,7.30
2023-02-10T18:32:08.111Z,7.53
2023-02-10T18:38:11.612Z,7.80
2023-02-10T18:44:15.112Z,9.02
2023-02-10T18:50:20.269Z,7.78
2023-02-10T18:56:23.667Z,7.43
2023-02-10T19:02:27.253Z,9.60
2023-02-10T19:08:32.039Z,9.25
2023-02-10T19:14:35.500Z,9.60
2023-02-10T19:20:39.218Z,8.52
2023-02-10T19:26:44.053Z,10.50
2023-02-10T19:32:47.680Z,7.47
2023-02-10T19:38:51.748Z,10.05
2023-02-10T19:44:56.638Z,8.05
2023-02-10T19:51:05.277Z,9.68
2023-02-10T19:57:08.689Z,11.50
2023-02-10T20:03:15.870Z,8.45
2023-02-10T20:09:19.889Z,8.33
2023-02-10T20:15:23.665Z,9.05
2023-02-10T20:21:28.549Z,8.80
2023-02-10T20:27:31.957Z,7.60
2023-02-10T20:33:35.343Z,7.55
2023-02-10T20:39:40.157Z,10.05
2023-02-10T20:45:43.614Z,8.57
2023-02-10T20:51:47.268Z,8.35
2023-02-10T20:57:53.288Z,9.40
2023-02-10T21:03:56.749Z,7.70
2023-02-10T21:10:00.256Z,8.88
2023-02-10T21:16:05.100Z,9.30
2023-02-10T21:22:08.626Z,7.60
2023-02-10T21:28:12.085Z,12.05
2023-02-10T21:34:17.979Z,10.43
2023-02-10T21:40:21.411Z,11.23
2023-02-10T21:46:24.862Z,6.65
2023-02-10T21:52:29.716Z,9.45
2023-02-10T21:58:33.089Z,10.60
2023-02-10T22:04:37.134Z,7.15
2023-02-10T22:10:41.885Z,6.93
2023-02-10T22:16:45.370Z,8.20
2023-02-10T22:22:49.096Z,11.15
2023-02-10T22:28:54.118Z,9.88
2023-02-10T22:34:57.512Z,8.93
2023-02-10T22:41:00.909Z,7.43
2023-02-10T22:47:05.871Z,10.13
2023-02-10T22:53:09.486Z,9.43
2023-02-10T22:59:14.162Z,12.30
2023-02-10T23:05:19.142Z,9.27
2023-02-10T23:11:24.374Z,8.00
2023-02-10T23:17:27.766Z,10.38
2023-02-10T23:23:32.555Z,10.25
2023-02-10T23:29:36.141Z,11.32
2023-02-10T23:35:43.354Z,9.73
2023-02-10T23:41:48.442Z,10.95
2023-02-10T23:47:51.888Z,10.93
2023-02-10T23:53:55.538Z,7.47
